Ninety Six, South Carolina
Current Conditions -  °F | °C
As of 7:56 AM on Friday 19 Dec 2014 (Local Time) from KGRD Reporting Station
Clear Clear  
Wind Chill: 30°   Ceiling: Unl
Heat Index: 34°   Visibility: 10mi
Dew Point: 31°   Wind: 5mph
Humidity: 89%   Direction: 340°NNW
Pressure: 30.16"   Gusts: NA
Location:  34.18°N, 82.02°W
Report Text: KGRD 191256Z AUTO 34004KT 10SM CLR 01/M01 A3016 RMK AO2 SLP215 T00111006
Loading
Personal Weather Stations






























Interactive Weather Map New forecast layout! Learn more

10-Day Weather Forecast

Advertisements
Track Severe Weather on mobile